Terminal Aerodrome Forecast
Issued by NWS Twin Cities, MN

Home | Current Version | Previous Version | Graphics & Text | Print | Product List | Glossary On
Versions: 1 2 3 4 5 6 7 8 9 10 11 12 13 14 15 16 17 18 19 20 21 22 23 24
070
FTUS43 KMPX 240049 AAA
TAFSTC
TAF AMD
KSTC 240049Z 2401/2424 35005KT 5SM -TSRA SCT025 BKN040CB
      TEMPO 2401/2402 1SM TSRA BKN020CB OVC040
     FM240200 03005KT P6SM VCSH BKN050
     FM240700 13006KT P6SM BKN100
     FM241000 16007KT P6SM SCT120
     FM241700 18012G18KT P6SM SCT050 BKN250=

USA.gov is the U.S. government's official web portal to all federal, state and local government web resources and services.